QUAO2: Spring River Near Quapaw, OK

Data processed at Fri Jun 05 2020 22:55


All information presented herein is the property of the government of the United States of America and may be revised or deleted at any time without prior notice.
Dissemination of this information without the expressed written consent of the Public Affairs Office, Tulsa District U.S. Army Corps of Engineers is strictly prohibited.
These data are gathered electronically and, as presented, have not undergone any form of quality control. These data are not guaranteed to be valid or correct.
Go to home page.
Go to station list.
Go to home page.

Upstream stations:

Downstream station:
Previous Day
Next Day
Current Day
    
SHEF ID:       QUAO2     Spring River near Quapaw, OK
STATION TYPE:  
Regulating: Stage =    20.00, Flow =    33875

               PRECIP     STAGE  STAGE(2)  RIV-FLOW  BAT-LOAD
                   in        ft        ft       cfs      volt
              Ccp-Rev   Ccp-Rev   Ccp-Rev   Ccp-Rev   Ccp-Rev
(US/Central)
06/05 00:00      0.00      8.73      8.80      3661     12.25
06/05 01:00      0.00      8.82      8.89      3827     12.33
06/05 02:00      0.00      8.99      9.09      4152     12.33
06/05 03:00      0.00      9.29      9.40      4693     12.33
06/05 04:00      0.00      9.68      9.79      5449     12.33
06/05 05:00      0.00     10.02     10.14      6151     12.33
06/05 06:00      0.00     10.31     10.43      6789     12.25
06/05 07:00      0.00     10.51     10.64      7233     12.25
06/05 08:00      0.00     10.61     10.80      7457     12.25
06/05 09:00      0.00     10.77     10.90      7813     12.25
06/05 10:00      0.00     10.78     10.94      7836     12.41
06/05 11:00      0.00     10.79     10.96      7858     12.57
06/05 12:00      0.00     10.84     10.95      7970     12.57
06/05 13:00      0.00     10.76     10.91      7791     12.65
06/05 14:00      0.00     10.71     10.87      7679     12.65
06/05 15:00      0.00     10.63     10.81      7501     12.65
06/05 16:00      0.00     10.59     10.72      7413     12.65
06/05 17:00      0.00     10.51     10.64      7233     12.89
06/05 18:00      0.00     10.46     10.59      7121     12.57
06/05 19:00      0.00     10.40     10.50      6989     12.49
06/05 20:00      0.00     10.32     10.41      6811     12.41
06/05 21:00      0.00     10.24     10.35      6633     12.41
06/05 22:00      ----      ----      ----      ----      ----
06/05 23:00      ----      ----      ----      ----      ----